首页
METAR-TAF:

METAR-TAF

机场 :

滑铁卢, 艾奥瓦州, 美国

纬度: 42-33-16N, 经度: 092-24-04W, 海拔: 266米

当前天气观测

该预报发布于33分钟前的20:54 UTC
风速15节,风向北转东北
温度 4°C
湿度 65%
气压 1011 hPa
能見度: 16.1公里
天空无云

METAR: KALO 242054Z 02015KT 10SM CLR 04/M02 A2986 RMK AO2 SLP121 T00391022 56016

时间: 15:27 (21:27 UTC)

预报

该预报发布于4小时和7分钟前的17:20 UTC
预报有效从24日的 18点(UTC)到 25日的 18点(UTC)
风速10节,风向东转东北
能見度: 10公里
天空无云
从 25日的 0600点(UTC)
风速10节,风向北转东北
能見度: 10公里
阴天层高于20000英尺
附近有阵雨
从 25日的 1100点(UTC)
风速12节,风向东北,有时为20节阵风
能見度: 10公里
阴天层高于12000英尺
从 25日的 1600点(UTC)
风速14节,风向北转东北,有时为22节阵风
能見度: 10公里
阴天层高于1500英尺

TAF: KALO 241720Z 2418/2518 07010KT P6SM SKC FM250600 03010KT P6SM VCSH OVC200 FM251100 04012G20KT P6SM OVC120 FM251600 03014G22KT P6SM OVC015

超过4000个机场的气象观测和天气预报(METAR&TAF报告)。

可查询的气象台以黄色和红色小点在地图上表示。

将鼠标移到小点上方,可查看气象台名称。

然后点击查看天气观测和预报。

如需切换地图:点击带黑十字的绿色按钮放大地图;点击带横线的绿色按钮缩小地图;或者点击绿色箭头查看邻近地区的地图。


METAR-TAF: